sensor_id;sensor_type;location;lat;lon;timestamp;temperature;humidity
81161;DHT22;70637;48.514;14.500;2024-01-30T00:01:53;27.80;35.00
81161;DHT22;70637;48.514;14.500;2024-01-30T00:04:19;27.80;35.00
81161;DHT22;70637;48.514;14.500;2024-01-30T00:06:45;27.80;35.00
81161;DHT22;70637;48.514;14.500;2024-01-30T00:09:10;27.80;35.00
81161;DHT22;70637;48.514;14.500;2024-01-30T00:11:37;27.80;35.00
81161;DHT22;70637;48.514;14.500;2024-01-30T00:14:04;27.80;35.00
81161;DHT22;70637;48.514;14.500;2024-01-30T00:16:30;27.80;35.00
81161;DHT22;70637;48.514;14.500;2024-01-30T00:18:56;27.80;35.00
81161;DHT22;70637;48.514;14.500;2024-01-30T00:21:22;27.80;35.00
81161;DHT22;70637;48.514;14.500;2024-01-30T00:23:49;27.80;35.10
81161;DHT22;70637;48.514;14.500;2024-01-30T00:26:15;27.80;35.00
81161;DHT22;70637;48.514;14.500;2024-01-30T00:28:41;27.80;35.00
81161;DHT22;70637;48.514;14.500;2024-01-30T00:31:07;27.70;34.90
81161;DHT22;70637;48.514;14.500;2024-01-30T00:33:33;27.70;34.90
81161;DHT22;70637;48.514;14.500;2024-01-30T00:35:59;27.70;34.90
81161;DHT22;70637;48.514;14.500;2024-01-30T00:38:24;27.70;34.90
81161;DHT22;70637;48.514;14.500;2024-01-30T00:40:50;27.70;34.90
81161;DHT22;70637;48.514;14.500;2024-01-30T00:43:16;27.70;34.90
81161;DHT22;70637;48.514;14.500;2024-01-30T00:45:43;27.70;34.90
81161;DHT22;70637;48.514;14.500;2024-01-30T00:48:09;27.70;34.90
81161;DHT22;70637;48.514;14.500;2024-01-30T00:50:34;27.70;34.90
81161;DHT22;70637;48.514;14.500;2024-01-30T00:53:00;27.70;34.90
81161;DHT22;70637;48.514;14.500;2024-01-30T00:55:26;27.70;34.90
81161;DHT22;70637;48.514;14.500;2024-01-30T00:57:51;27.70;34.90
81161;DHT22;70637;48.514;14.500;2024-01-30T01:00:17;27.70;34.90
81161;DHT22;70637;48.514;14.500;2024-01-30T01:02:43;27.60;34.80
81161;DHT22;70637;48.514;14.500;2024-01-30T01:05:09;27.70;34.90
81161;DHT22;70637;48.514;14.500;2024-01-30T01:07:35;27.60;34.80
81161;DHT22;70637;48.514;14.500;2024-01-30T01:10:01;27.60;34.80
81161;DHT22;70637;48.514;14.500;2024-01-30T01:12:27;27.60;34.80
81161;DHT22;70637;48.514;14.500;2024-01-30T01:14:53;27.70;34.90
81161;DHT22;70637;48.514;14.500;2024-01-30T01:17:19;27.70;34.90
81161;DHT22;70637;48.514;14.500;2024-01-30T01:19:45;27.60;34.80
81161;DHT22;70637;48.514;14.500;2024-01-30T01:22:11;27.60;34.90
81161;DHT22;70637;48.514;14.500;2024-01-30T01:24:36;27.60;34.90
81161;DHT22;70637;48.514;14.500;2024-01-30T01:27:02;27.60;34.80
81161;DHT22;70637;48.514;14.500;2024-01-30T01:29:28;27.60;34.90
81161;DHT22;70637;48.514;14.500;2024-01-30T01:31:57;27.60;34.80
81161;DHT22;70637;48.514;14.500;2024-01-30T01:34:24;27.60;34.80
81161;DHT22;70637;48.514;14.500;2024-01-30T01:36:50;27.60;34.80
81161;DHT22;70637;48.514;14.500;2024-01-30T01:39:17;27.60;34.80
81161;DHT22;70637;48.514;14.500;2024-01-30T01:41:43;27.60;34.80
81161;DHT22;70637;48.514;14.500;2024-01-30T01:44:09;27.60;34.90
81161;DHT22;70637;48.514;14.500;2024-01-30T01:46:34;27.60;34.90
81161;DHT22;70637;48.514;14.500;2024-01-30T01:49:02;27.50;34.80
81161;DHT22;70637;48.514;14.500;2024-01-30T01:51:29;27.60;34.80
81161;DHT22;70637;48.514;14.500;2024-01-30T01:53:57;27.60;34.80
81161;DHT22;70637;48.514;14.500;2024-01-30T01:56:24;27.60;34.80
81161;DHT22;70637;48.514;14.500;2024-01-30T01:58:51;27.60;34.80
81161;DHT22;70637;48.514;14.500;2024-01-30T02:01:20;27.60;34.80
81161;DHT22;70637;48.514;14.500;2024-01-30T02:03:46;27.50;34.80
81161;DHT22;70637;48.514;14.500;2024-01-30T02:06:13;27.50;34.80
81161;DHT22;70637;48.514;14.500;2024-01-30T02:08:40;27.60;34.90
81161;DHT22;70637;48.514;14.500;2024-01-30T02:11:06;27.60;34.80
81161;DHT22;70637;48.514;14.500;2024-01-30T02:13:31;27.50;34.80
81161;DHT22;70637;48.514;14.500;2024-01-30T02:15:57;27.50;34.80
81161;DHT22;70637;48.514;14.500;2024-01-30T02:18:23;27.50;34.80
81161;DHT22;70637;48.514;14.500;2024-01-30T02:20:48;27.50;34.80
81161;DHT22;70637;48.514;14.500;2024-01-30T02:23:16;27.50;34.80
81161;DHT22;70637;48.514;14.500;2024-01-30T02:25:42;27.50;34.80
81161;DHT22;70637;48.514;14.500;2024-01-30T02:28:12;27.50;34.80
81161;DHT22;70637;48.514;14.500;2024-01-30T02:30:43;27.50;34.80
81161;DHT22;70637;48.514;14.500;2024-01-30T02:33:09;27.50;34.80
81161;DHT22;70637;48.514;14.500;2024-01-30T02:35:35;27.50;34.80
81161;DHT22;70637;48.514;14.500;2024-01-30T02:38:01;27.50;34.80
81161;DHT22;70637;48.514;14.500;2024-01-30T02:40:26;27.50;34.80
81161;DHT22;70637;48.514;14.500;2024-01-30T02:42:52;27.50;34.80
81161;DHT22;70637;48.514;14.500;2024-01-30T02:45:18;27.50;34.80
81161;DHT22;70637;48.514;14.500;2024-01-30T02:47:44;27.50;34.80
81161;DHT22;70637;48.514;14.500;2024-01-30T02:50:10;27.50;34.80
81161;DHT22;70637;48.514;14.500;2024-01-30T02:52:35;27.50;34.80
81161;DHT22;70637;48.514;14.500;2024-01-30T02:55:01;27.50;35.80
81161;DHT22;70637;48.514;14.500;2024-01-30T02:57:28;27.50;35.80
81161;DHT22;70637;48.514;14.500;2024-01-30T02:59:54;27.50;34.80
81161;DHT22;70637;48.514;14.500;2024-01-30T03:02:19;27.50;35.50
81161;DHT22;70637;48.514;14.500;2024-01-30T03:04:45;27.50;34.80
81161;DHT22;70637;48.514;14.500;2024-01-30T03:07:11;27.40;34.70
81161;DHT22;70637;48.514;14.500;2024-01-30T03:09:37;27.50;34.80
81161;DHT22;70637;48.514;14.500;2024-01-30T03:12:03;27.40;34.70
81161;DHT22;70637;48.514;14.500;2024-01-30T03:14:32;27.50;34.80
81161;DHT22;70637;48.514;14.500;2024-01-30T03:16:58;27.50;34.80
81161;DHT22;70637;48.514;14.500;2024-01-30T03:19:23;27.50;34.80
81161;DHT22;70637;48.514;14.500;2024-01-30T03:21:50;27.50;34.80
81161;DHT22;70637;48.514;14.500;2024-01-30T03:24:15;27.50;34.80
81161;DHT22;70637;48.514;14.500;2024-01-30T03:26:42;27.40;34.80
81161;DHT22;70637;48.514;14.500;2024-01-30T03:29:07;27.50;34.80
81161;DHT22;70637;48.514;14.500;2024-01-30T03:31:33;27.40;34.70
81161;DHT22;70637;48.514;14.500;2024-01-30T03:33:59;27.50;34.80
81161;DHT22;70637;48.514;14.500;2024-01-30T03:36:24;27.40;34.70
81161;DHT22;70637;48.514;14.500;2024-01-30T03:38:50;27.40;34.70
81161;DHT22;70637;48.514;14.500;2024-01-30T03:41:16;27.40;34.70
81161;DHT22;70637;48.514;14.500;2024-01-30T03:43:41;27.40;34.80
81161;DHT22;70637;48.514;14.500;2024-01-30T03:46:07;27.40;34.70
81161;DHT22;70637;48.514;14.500;2024-01-30T03:48:33;27.40;34.70
81161;DHT22;70637;48.514;14.500;2024-01-30T03:50:58;27.40;34.70
81161;DHT22;70637;48.514;14.500;2024-01-30T03:53:24;27.40;34.70
81161;DHT22;70637;48.514;14.500;2024-01-30T03:55:50;27.40;34.80
81161;DHT22;70637;48.514;14.500;2024-01-30T03:58:15;27.40;34.70
81161;DHT22;70637;48.514;14.500;2024-01-30T04:00:41;27.40;34.80
81161;DHT22;70637;48.514;14.500;2024-01-30T04:03:07;27.40;34.70
81161;DHT22;70637;48.514;14.500;2024-01-30T04:05:33;27.40;34.70
81161;DHT22;70637;48.514;14.500;2024-01-30T04:07:59;27.40;34.70
81161;DHT22;70637;48.514;14.500;2024-01-30T04:10:24;27.40;34.70
81161;DHT22;70637;48.514;14.500;2024-01-30T04:12:50;27.40;34.70
81161;DHT22;70637;48.514;14.500;2024-01-30T04:15:17;27.40;34.70
81161;DHT22;70637;48.514;14.500;2024-01-30T04:17:43;27.40;34.70
81161;DHT22;70637;48.514;14.500;2024-01-30T04:20:16;27.40;34.70
81161;DHT22;70637;48.514;14.500;2024-01-30T04:22:44;27.40;34.70
81161;DHT22;70637;48.514;14.500;2024-01-30T04:25:10;27.40;34.70
81161;DHT22;70637;48.514;14.500;2024-01-30T04:27:36;27.40;34.80
81161;DHT22;70637;48.514;14.500;2024-01-30T04:30:02;27.40;34.70
81161;DHT22;70637;48.514;14.500;2024-01-30T04:32:27;27.40;34.70
81161;DHT22;70637;48.514;14.500;2024-01-30T04:34:53;27.40;34.80
81161;DHT22;70637;48.514;14.500;2024-01-30T04:37:19;27.40;34.70
81161;DHT22;70637;48.514;14.500;2024-01-30T04:39:44;27.40;34.70
81161;DHT22;70637;48.514;14.500;2024-01-30T04:42:10;27.40;34.70
81161;DHT22;70637;48.514;14.500;2024-01-30T04:44:35;27.40;34.70
81161;DHT22;70637;48.514;14.500;2024-01-30T04:47:01;27.40;34.80
81161;DHT22;70637;48.514;14.500;2024-01-30T04:49:27;27.40;34.70
81161;DHT22;70637;48.514;14.500;2024-01-30T04:51:54;27.40;34.80
81161;DHT22;70637;48.514;14.500;2024-01-30T04:54:20;27.40;34.70
81161;DHT22;70637;48.514;14.500;2024-01-30T04:56:45;27.40;34.70
81161;DHT22;70637;48.514;14.500;2024-01-30T04:59:12;27.40;34.70
81161;DHT22;70637;48.514;14.500;2024-01-30T05:01:37;27.30;34.60
81161;DHT22;70637;48.514;14.500;2024-01-30T05:04:03;27.40;34.70
81161;DHT22;70637;48.514;14.500;2024-01-30T05:06:29;27.40;34.70
81161;DHT22;70637;48.514;14.500;2024-01-30T05:08:55;27.40;34.70
81161;DHT22;70637;48.514;14.500;2024-01-30T05:11:21;27.40;34.70
81161;DHT22;70637;48.514;14.500;2024-01-30T05:13:47;27.40;34.70
81161;DHT22;70637;48.514;14.500;2024-01-30T05:16:13;27.30;34.70
81161;DHT22;70637;48.514;14.500;2024-01-30T05:18:39;27.30;34.70
81161;DHT22;70637;48.514;14.500;2024-01-30T05:21:05;27.30;34.60
81161;DHT22;70637;48.514;14.500;2024-01-30T05:23:31;27.40;34.70
81161;DHT22;70637;48.514;14.500;2024-01-30T05:25:57;27.30;34.70
81161;DHT22;70637;48.514;14.500;2024-01-30T05:28:22;27.30;34.60
81161;DHT22;70637;48.514;14.500;2024-01-30T05:30:48;27.30;34.60
81161;DHT22;70637;48.514;14.500;2024-01-30T05:33:14;27.30;34.60
81161;DHT22;70637;48.514;14.500;2024-01-30T05:35:40;27.40;34.80
81161;DHT22;70637;48.514;14.500;2024-01-30T05:38:05;27.30;34.60
81161;DHT22;70637;48.514;14.500;2024-01-30T05:40:31;27.30;34.70
81161;DHT22;70637;48.514;14.500;2024-01-30T05:42:57;27.30;34.70
81161;DHT22;70637;48.514;14.500;2024-01-30T05:45:26;27.30;34.70
81161;DHT22;70637;48.514;14.500;2024-01-30T05:47:52;27.30;34.70
81161;DHT22;70637;48.514;14.500;2024-01-30T05:50:19;27.30;34.70
81161;DHT22;70637;48.514;14.500;2024-01-30T05:52:45;27.30;34.70
81161;DHT22;70637;48.514;14.500;2024-01-30T05:55:12;27.30;34.70
81161;DHT22;70637;48.514;14.500;2024-01-30T05:57:38;27.30;34.70
81161;DHT22;70637;48.514;14.500;2024-01-30T06:00:06;27.30;34.70
81161;DHT22;70637;48.514;14.500;2024-01-30T06:02:32;27.30;34.70
81161;DHT22;70637;48.514;14.500;2024-01-30T06:04:58;27.30;34.70
81161;DHT22;70637;48.514;14.500;2024-01-30T06:07:24;27.30;34.70
81161;DHT22;70637;48.514;14.500;2024-01-30T06:09:49;27.30;34.70
81161;DHT22;70637;48.514;14.500;2024-01-30T06:12:15;27.30;34.70
81161;DHT22;70637;48.514;14.500;2024-01-30T06:14:41;27.30;34.70
81161;DHT22;70637;48.514;14.500;2024-01-30T06:17:08;27.30;34.70
81161;DHT22;70637;48.514;14.500;2024-01-30T06:19:34;27.30;34.70
81161;DHT22;70637;48.514;14.500;2024-01-30T06:22:00;27.30;34.70
81161;DHT22;70637;48.514;14.500;2024-01-30T06:24:25;27.30;34.80
81161;DHT22;70637;48.514;14.500;2024-01-30T06:26:51;27.40;34.80
81161;DHT22;70637;48.514;14.500;2024-01-30T06:29:17;27.30;34.80
81161;DHT22;70637;48.514;14.500;2024-01-30T06:31:43;27.30;34.70
81161;DHT22;70637;48.514;14.500;2024-01-30T06:34:09;27.30;34.70
81161;DHT22;70637;48.514;14.500;2024-01-30T06:36:35;27.30;34.70
81161;DHT22;70637;48.514;14.500;2024-01-30T06:39:02;27.30;34.70
81161;DHT22;70637;48.514;14.500;2024-01-30T06:41:28;27.30;34.80
81161;DHT22;70637;48.514;14.500;2024-01-30T06:43:54;27.30;34.80
81161;DHT22;70637;48.514;14.500;2024-01-30T06:46:19;27.30;34.80
81161;DHT22;70637;48.514;14.500;2024-01-30T06:48:45;27.30;34.70
81161;DHT22;70637;48.514;14.500;2024-01-30T06:51:11;27.30;34.80
81161;DHT22;70637;48.514;14.500;2024-01-30T06:53:37;27.30;34.80
81161;DHT22;70637;48.514;14.500;2024-01-30T06:56:04;27.30;34.80
81161;DHT22;70637;48.514;14.500;2024-01-30T06:58:30;27.30;34.70
81161;DHT22;70637;48.514;14.500;2024-01-30T07:00:56;27.30;34.80
81161;DHT22;70637;48.514;14.500;2024-01-30T07:03:22;27.30;34.80
81161;DHT22;70637;48.514;14.500;2024-01-30T07:05:47;27.30;34.80
81161;DHT22;70637;48.514;14.500;2024-01-30T07:08:15;27.30;34.80
81161;DHT22;70637;48.514;14.500;2024-01-30T07:10:45;27.30;34.80
81161;DHT22;70637;48.514;14.500;2024-01-30T07:13:11;27.30;34.80
81161;DHT22;70637;48.514;14.500;2024-01-30T07:15:37;27.30;34.80
81161;DHT22;70637;48.514;14.500;2024-01-30T07:18:03;27.30;34.90
81161;DHT22;70637;48.514;14.500;2024-01-30T07:20:30;27.30;35.00
81161;DHT22;70637;48.514;14.500;2024-01-30T07:22:58;27.30;34.90
81161;DHT22;70637;48.514;14.500;2024-01-30T07:25:24;27.30;35.00
81161;DHT22;70637;48.514;14.500;2024-01-30T07:27:54;27.30;35.00
81161;DHT22;70637;48.514;14.500;2024-01-30T07:30:20;27.30;35.00
81161;DHT22;70637;48.514;14.500;2024-01-30T07:32:46;27.30;35.10
81161;DHT22;70637;48.514;14.500;2024-01-30T07:35:15;27.30;35.10
81161;DHT22;70637;48.514;14.500;2024-01-30T07:37:41;27.30;35.00
81161;DHT22;70637;48.514;14.500;2024-01-30T07:40:07;27.30;35.00
81161;DHT22;70637;48.514;14.500;2024-01-30T07:42:33;27.30;35.10
81161;DHT22;70637;48.514;14.500;2024-01-30T07:45:00;27.30;35.10
81161;DHT22;70637;48.514;14.500;2024-01-30T07:47:26;27.30;35.10
81161;DHT22;70637;48.514;14.500;2024-01-30T07:49:51;27.30;35.10
81161;DHT22;70637;48.514;14.500;2024-01-30T07:52:18;27.30;35.10
81161;DHT22;70637;48.514;14.500;2024-01-30T07:58:25;27.30;35.10
81161;DHT22;70637;48.514;14.500;2024-01-30T08:00:53;27.30;35.10
81161;DHT22;70637;48.514;14.500;2024-01-30T08:03:19;27.30;35.10
81161;DHT22;70637;48.514;14.500;2024-01-30T08:05:44;27.30;35.20
81161;DHT22;70637;48.514;14.500;2024-01-30T08:08:10;27.30;35.20
81161;DHT22;70637;48.514;14.500;2024-01-30T08:10:36;27.30;35.20
81161;DHT22;70637;48.514;14.500;2024-01-30T08:13:02;27.30;35.30
81161;DHT22;70637;48.514;14.500;2024-01-30T08:15:27;27.30;35.30
81161;DHT22;70637;48.514;14.500;2024-01-30T08:17:53;27.30;35.30
81161;DHT22;70637;48.514;14.500;2024-01-30T08:20:23;27.30;35.30
81161;DHT22;70637;48.514;14.500;2024-01-30T08:22:49;27.40;35.30
81161;DHT22;70637;48.514;14.500;2024-01-30T08:25:15;27.40;35.30
81161;DHT22;70637;48.514;14.500;2024-01-30T08:27:40;27.40;35.20
81161;DHT22;70637;48.514;14.500;2024-01-30T08:30:07;27.40;35.20
81161;DHT22;70637;48.514;14.500;2024-01-30T08:32:33;27.40;35.10
81161;DHT22;70637;48.514;14.500;2024-01-30T08:34:59;27.40;36.10
81161;DHT22;70637;48.514;14.500;2024-01-30T08:37:25;27.40;34.40
81161;DHT22;70637;48.514;14.500;2024-01-30T08:39:50;27.30;32.10
81161;DHT22;70637;48.514;14.500;2024-01-30T08:42:16;27.20;30.20
81161;DHT22;70637;48.514;14.500;2024-01-30T08:44:44;27.10;29.20
81161;DHT22;70637;48.514;14.500;2024-01-30T08:47:09;27.00;28.40
81161;DHT22;70637;48.514;14.500;2024-01-30T08:49:35;26.90;27.70
81161;DHT22;70637;48.514;14.500;2024-01-30T08:52:00;26.80;27.30
81161;DHT22;70637;48.514;14.500;2024-01-30T08:54:26;26.70;27.00
81161;DHT22;70637;48.514;14.500;2024-01-30T08:56:52;26.60;26.60
81161;DHT22;70637;48.514;14.500;2024-01-30T08:59:21;26.50;26.20
81161;DHT22;70637;48.514;14.500;2024-01-30T09:01:47;26.40;26.10
81161;DHT22;70637;48.514;14.500;2024-01-30T09:04:13;26.30;26.00
81161;DHT22;70637;48.514;14.500;2024-01-30T09:06:38;26.20;25.90
81161;DHT22;70637;48.514;14.500;2024-01-30T09:09:04;26.10;25.90
81161;DHT22;70637;48.514;14.500;2024-01-30T09:11:31;26.00;25.80
81161;DHT22;70637;48.514;14.500;2024-01-30T09:13:56;25.90;25.70
81161;DHT22;70637;48.514;14.500;2024-01-30T09:16:22;25.80;25.60
81161;DHT22;70637;48.514;14.500;2024-01-30T09:18:48;25.70;25.50
81161;DHT22;70637;48.514;14.500;2024-01-30T09:21:13;25.70;25.50
81161;DHT22;70637;48.514;14.500;2024-01-30T09:23:39;25.60;25.40
81161;DHT22;70637;48.514;14.500;2024-01-30T09:26:05;25.50;25.40
81161;DHT22;70637;48.514;14.500;2024-01-30T09:28:31;25.40;25.40
81161;DHT22;70637;48.514;14.500;2024-01-30T09:30:56;25.40;25.50
81161;DHT22;70637;48.514;14.500;2024-01-30T09:33:22;25.30;25.50
81161;DHT22;70637;48.514;14.500;2024-01-30T09:35:47;25.30;25.50
81161;DHT22;70637;48.514;14.500;2024-01-30T09:38:13;25.30;25.50
81161;DHT22;70637;48.514;14.500;2024-01-30T09:40:39;25.20;25.40
81161;DHT22;70637;48.514;14.500;2024-01-30T09:43:04;25.10;25.40
81161;DHT22;70637;48.514;14.500;2024-01-30T09:45:32;25.10;25.40
81161;DHT22;70637;48.514;14.500;2024-01-30T09:47:59;25.10;25.40
81161;DHT22;70637;48.514;14.500;2024-01-30T09:50:25;25.00;25.70
81161;DHT22;70637;48.514;14.500;2024-01-30T09:52:54;25.00;27.00
81161;DHT22;70637;48.514;14.500;2024-01-30T09:55:20;24.90;27.90
81161;DHT22;70637;48.514;14.500;2024-01-30T09:57:47;24.90;28.40
81161;DHT22;70637;48.514;14.500;2024-01-30T10:00:13;25.00;28.80
81161;DHT22;70637;48.514;14.500;2024-01-30T10:02:39;25.10;29.10
81161;DHT22;70637;48.514;14.500;2024-01-30T10:05:05;25.10;29.30
81161;DHT22;70637;48.514;14.500;2024-01-30T10:07:31;25.20;29.50
81161;DHT22;70637;48.514;14.500;2024-01-30T10:09:56;25.20;29.60
81161;DHT22;70637;48.514;14.500;2024-01-30T10:12:23;25.30;29.80
81161;DHT22;70637;48.514;14.500;2024-01-30T10:14:49;25.40;29.90
81161;DHT22;70637;48.514;14.500;2024-01-30T10:17:14;25.40;30.00
81161;DHT22;70637;48.514;14.500;2024-01-30T10:19:41;25.50;30.10
81161;DHT22;70637;48.514;14.500;2024-01-30T10:22:07;25.60;30.30
81161;DHT22;70637;48.514;14.500;2024-01-30T10:24:36;25.60;30.50
81161;DHT22;70637;48.514;14.500;2024-01-30T10:27:02;25.60;30.60
81161;DHT22;70637;48.514;14.500;2024-01-30T10:29:31;25.70;30.80
81161;DHT22;70637;48.514;14.500;2024-01-30T10:32:04;25.70;30.90
81161;DHT22;70637;48.514;14.500;2024-01-30T10:34:31;25.80;31.10
81161;DHT22;70637;48.514;14.500;2024-01-30T10:37:07;25.80;31.10
81161;DHT22;70637;48.514;14.500;2024-01-30T10:39:38;25.90;31.30
81161;DHT22;70637;48.514;14.500;2024-01-30T10:42:05;25.90;31.40
81161;DHT22;70637;48.514;14.500;2024-01-30T10:44:48;25.90;31.60
81161;DHT22;70637;48.514;14.500;2024-01-30T10:47:18;25.90;31.90
81161;DHT22;70637;48.514;14.500;2024-01-30T10:49:47;26.00;32.10
81161;DHT22;70637;48.514;14.500;2024-01-30T10:52:13;26.00;32.10
81161;DHT22;70637;48.514;14.500;2024-01-30T10:54:40;26.00;32.10
81161;DHT22;70637;48.514;14.500;2024-01-30T10:57:10;26.10;32.40
81161;DHT22;70637;48.514;14.500;2024-01-30T10:59:37;26.10;32.50
81161;DHT22;70637;48.514;14.500;2024-01-30T11:02:03;26.10;32.50
81161;DHT22;70637;48.514;14.500;2024-01-30T11:04:36;26.10;32.50
81161;DHT22;70637;48.514;14.500;2024-01-30T11:07:02;26.20;32.70
81161;DHT22;70637;48.514;14.500;2024-01-30T11:09:29;26.20;32.70
81161;DHT22;70637;48.514;14.500;2024-01-30T11:11:58;26.20;32.70
81161;DHT22;70637;48.514;14.500;2024-01-30T11:14:29;26.30;32.80
81161;DHT22;70637;48.514;14.500;2024-01-30T11:16:58;26.20;32.80
81161;DHT22;70637;48.514;14.500;2024-01-30T11:19:26;26.30;32.90
81161;DHT22;70637;48.514;14.500;2024-01-30T11:21:54;26.30;32.90
81161;DHT22;70637;48.514;14.500;2024-01-30T11:24:25;26.30;33.00
81161;DHT22;70637;48.514;14.500;2024-01-30T11:26:58;26.30;33.00
81161;DHT22;70637;48.514;14.500;2024-01-30T11:29:28;26.30;33.00
81161;DHT22;70637;48.514;14.500;2024-01-30T11:31:58;26.40;33.10
81161;DHT22;70637;48.514;14.500;2024-01-30T11:34:24;26.40;33.20
81161;DHT22;70637;48.514;14.500;2024-01-30T11:37:02;26.40;33.20
81161;DHT22;70637;48.514;14.500;2024-01-30T11:39:29;26.40;33.20
81161;DHT22;70637;48.514;14.500;2024-01-30T11:41:55;26.40;33.20
81161;DHT22;70637;48.514;14.500;2024-01-30T11:44:21;26.40;33.30
81161;DHT22;70637;48.514;14.500;2024-01-30T11:46:51;26.40;33.30
81161;DHT22;70637;48.514;14.500;2024-01-30T11:49:17;26.50;33.40
81161;DHT22;70637;48.514;14.500;2024-01-30T11:51:46;26.50;33.40
81161;DHT22;70637;48.514;14.500;2024-01-30T11:54:15;26.50;33.40
81161;DHT22;70637;48.514;14.500;2024-01-30T11:56:42;26.50;33.40
81161;DHT22;70637;48.514;14.500;2024-01-30T11:59:07;26.50;33.50
81161;DHT22;70637;48.514;14.500;2024-01-30T12:01:33;26.50;33.50
81161;DHT22;70637;48.514;14.500;2024-01-30T12:03:59;26.60;33.60
81161;DHT22;70637;48.514;14.500;2024-01-30T12:06:25;26.50;33.50
81161;DHT22;70637;48.514;14.500;2024-01-30T12:09:01;26.60;33.60
81161;DHT22;70637;48.514;14.500;2024-01-30T12:11:30;26.60;33.70
81161;DHT22;70637;48.514;14.500;2024-01-30T12:13:56;26.60;33.60
81161;DHT22;70637;48.514;14.500;2024-01-30T12:16:21;26.60;33.70
81161;DHT22;70637;48.514;14.500;2024-01-30T12:18:48;26.60;33.70
81161;DHT22;70637;48.514;14.500;2024-01-30T12:21:16;26.60;33.70
81161;DHT22;70637;48.514;14.500;2024-01-30T12:23:43;26.60;33.70
81161;DHT22;70637;48.514;14.500;2024-01-30T12:26:09;26.60;33.80
81161;DHT22;70637;48.514;14.500;2024-01-30T12:28:35;26.70;33.80
81161;DHT22;70637;48.514;14.500;2024-01-30T12:31:02;26.70;33.90
81161;DHT22;70637;48.514;14.500;2024-01-30T12:33:29;26.70;33.90
81161;DHT22;70637;48.514;14.500;2024-01-30T12:35:56;26.70;33.90
81161;DHT22;70637;48.514;14.500;2024-01-30T12:38:23;26.70;33.90
81161;DHT22;70637;48.514;14.500;2024-01-30T12:40:50;26.70;33.90
81161;DHT22;70637;48.514;14.500;2024-01-30T12:43:15;26.70;34.00
81161;DHT22;70637;48.514;14.500;2024-01-30T12:45:41;26.70;34.00
81161;DHT22;70637;48.514;14.500;2024-01-30T12:48:08;26.70;34.00
81161;DHT22;70637;48.514;14.500;2024-01-30T12:50:34;26.70;34.00
81161;DHT22;70637;48.514;14.500;2024-01-30T12:52:59;26.70;34.00
81161;DHT22;70637;48.514;14.500;2024-01-30T12:55:25;26.70;34.00
81161;DHT22;70637;48.514;14.500;2024-01-30T12:57:54;26.70;34.00
81161;DHT22;70637;48.514;14.500;2024-01-30T13:00:20;26.70;34.10
81161;DHT22;70637;48.514;14.500;2024-01-30T13:02:45;26.80;34.10
81161;DHT22;70637;48.514;14.500;2024-01-30T13:05:12;26.80;34.20
81161;DHT22;70637;48.514;14.500;2024-01-30T13:07:38;26.80;34.20
81161;DHT22;70637;48.514;14.500;2024-01-30T13:10:04;26.80;34.20
81161;DHT22;70637;48.514;14.500;2024-01-30T13:12:30;26.80;34.20
81161;DHT22;70637;48.514;14.500;2024-01-30T13:14:57;26.80;35.30
81161;DHT22;70637;48.514;14.500;2024-01-30T13:17:24;26.80;34.30
81161;DHT22;70637;48.514;14.500;2024-01-30T13:19:49;26.80;34.30
81161;DHT22;70637;48.514;14.500;2024-01-30T13:22:15;26.80;34.30
81161;DHT22;70637;48.514;14.500;2024-01-30T13:24:41;26.80;34.30
81161;DHT22;70637;48.514;14.500;2024-01-30T13:27:07;26.80;34.40
81161;DHT22;70637;48.514;14.500;2024-01-30T13:29:34;26.80;34.40
81161;DHT22;70637;48.514;14.500;2024-01-30T13:31:59;26.80;34.40
81161;DHT22;70637;48.514;14.500;2024-01-30T13:34:25;26.80;34.40
81161;DHT22;70637;48.514;14.500;2024-01-30T13:36:51;26.80;34.50
81161;DHT22;70637;48.514;14.500;2024-01-30T13:39:17;26.80;34.50
81161;DHT22;70637;48.514;14.500;2024-01-30T13:41:43;26.80;34.50
81161;DHT22;70637;48.514;14.500;2024-01-30T13:44:08;26.80;34.50
81161;DHT22;70637;48.514;14.500;2024-01-30T13:46:35;26.90;34.60
81161;DHT22;70637;48.514;14.500;2024-01-30T13:49:01;26.90;34.60
81161;DHT22;70637;48.514;14.500;2024-01-30T13:51:27;26.90;34.60
81161;DHT22;70637;48.514;14.500;2024-01-30T13:53:53;26.90;34.60
81161;DHT22;70637;48.514;14.500;2024-01-30T13:56:19;26.90;34.60
81161;DHT22;70637;48.514;14.500;2024-01-30T13:58:47;26.90;34.70
81161;DHT22;70637;48.514;14.500;2024-01-30T14:01:13;26.90;34.70
81161;DHT22;70637;48.514;14.500;2024-01-30T14:03:41;26.90;34.70
81161;DHT22;70637;48.514;14.500;2024-01-30T14:06:06;26.90;34.70
81161;DHT22;70637;48.514;14.500;2024-01-30T14:08:32;26.90;34.70
81161;DHT22;70637;48.514;14.500;2024-01-30T14:10:58;26.90;34.70
81161;DHT22;70637;48.514;14.500;2024-01-30T14:13:23;26.90;34.80
81161;DHT22;70637;48.514;14.500;2024-01-30T14:15:53;26.90;34.70
81161;DHT22;70637;48.514;14.500;2024-01-30T14:18:19;26.90;34.80
81161;DHT22;70637;48.514;14.500;2024-01-30T14:20:45;26.90;34.80
81161;DHT22;70637;48.514;14.500;2024-01-30T14:23:10;26.90;34.80
81161;DHT22;70637;48.514;14.500;2024-01-30T14:25:36;26.90;34.90
81161;DHT22;70637;48.514;14.500;2024-01-30T14:28:02;27.00;34.90
81161;DHT22;70637;48.514;14.500;2024-01-30T14:30:27;26.90;34.80
81161;DHT22;70637;48.514;14.500;2024-01-30T14:32:53;26.90;34.80
81161;DHT22;70637;48.514;14.500;2024-01-30T14:35:20;27.00;35.00
81161;DHT22;70637;48.514;14.500;2024-01-30T14:37:45;27.00;35.00
81161;DHT22;70637;48.514;14.500;2024-01-30T14:40:11;27.00;35.00
81161;DHT22;70637;48.514;14.500;2024-01-30T14:42:37;27.00;35.00
81161;DHT22;70637;48.514;14.500;2024-01-30T14:45:06;27.00;35.00
81161;DHT22;70637;48.514;14.500;2024-01-30T14:47:33;26.90;35.00
81161;DHT22;70637;48.514;14.500;2024-01-30T14:49:58;27.00;35.00
81161;DHT22;70637;48.514;14.500;2024-01-30T14:52:24;27.00;35.00
81161;DHT22;70637;48.514;14.500;2024-01-30T14:54:50;27.00;35.10
81161;DHT22;70637;48.514;14.500;2024-01-30T14:57:15;27.00;35.10
81161;DHT22;70637;48.514;14.500;2024-01-30T14:59:41;27.00;35.00
81161;DHT22;70637;48.514;14.500;2024-01-30T15:02:07;27.00;35.10
81161;DHT22;70637;48.514;14.500;2024-01-30T15:04:33;27.00;35.00
81161;DHT22;70637;48.514;14.500;2024-01-30T15:06:58;27.00;35.00
81161;DHT22;70637;48.514;14.500;2024-01-30T15:09:24;27.00;35.10
81161;DHT22;70637;48.514;14.500;2024-01-30T15:11:51;27.00;35.10
81161;DHT22;70637;48.514;14.500;2024-01-30T15:14:17;27.00;35.10